Seafriend — 9HA3308 — position and weather

sailwx.info

Track history (hours):
 
Tides and Currents Weather Stations Pressure Air Temp Water Temp Dewpoint Dewpoint Depression Visibility Wind Speed Wind Dir Waves Ship Positions

Seafriend

Last reported at 2017-Sep-29 03:36 UTC. Time now 2017-Oct-22 10:30 UTC.
Position N 31°59' W 074°17'.
Warning: this ship's position is 23 days out of date.

Length 183 m; draft 8 m.

Type: Tanker. MMSI: 229407000.

Date/timePositionNaut miles runAvg speedWind from/ knotsBaromVisibWave heightAir tempDewpointWater temp
2017-Sep-29 03:36N 31°59' W 074°17'112.5
2017-Sep-29 03:29N 32°00' W 074°17'50711.2
2017-Sep-27 06:08N 40°27' W 073°50'210.1
2017-Sep-27 05:58N 40°28' W 073°52'714.7
2017-Sep-27 05:30N 40°31' W 073°60'713.4
2017-Sep-27 05:01N 40°37' W 074°03'1 1.5
2017-Sep-27 04:28N 40°38' W 074°04'0 0.1
2017-Sep-27 03:58N 40°38' W 074°04'0 0.1
2017-Sep-27 03:28N 40°38' W 074°04'0 0.0
2017-Sep-27 02:58N 40°38' W 074°04'0 0.1
2017-Sep-27 02:28N 40°38' W 074°04'0 0.1
2017-Sep-27 01:58N 40°38' W 074°04'0 0.0
2017-Sep-27 01:28N 40°38' W 074°04'0 0.0
2017-Sep-27 00:58N 40°38' W 074°04'0 0.1
2017-Sep-27 00:28N 40°38' W 074°04'0 0.0
2017-Sep-26 23:58N 40°38' W 074°04'0 0.0
2017-Sep-26 23:28N 40°38' W 074°04'0 0.0
2017-Sep-26 22:58N 40°38' W 074°04'1 1.2
2017-Sep-26 22:30N 40°37' W 074°04'4 8.2
2017-Sep-26 22:00N 40°33' W 074°02'5 9.6
2017-Sep-26 21:30N 40°29' W 074°04'612.0
2017-Sep-26 20:59N 40°30' W 074°12'3 4.8
2017-Sep-26 20:21N 40°32' W 074°15'2 4.9
2017-Sep-26 20:00N 40°33' W 074°13'2 0.0
2017-Sep-25 05:48N 40°35' W 074°13'0 0.1
2017-Sep-25 05:29N 40°35' W 074°13'1 3.0
2017-Sep-25 05:00N 40°34' W 074°13'2 4.3
2017-Sep-25 04:30N 40°32' W 074°15'3 3.8
2017-Sep-25 03:47N 40°29' W 074°14'2 6.0
2017-Sep-25 03:30N 40°30' W 074°12'5 9.0
2017-Sep-25 03:00N 40°29' W 074°06'510.7
2017-Sep-25 02:30N 40°29' W 073°59'611.9
2017-Sep-25 02:00N 40°27' W 073°52'510.3
2017-Sep-25 01:30N 40°28' W 073°46'5 9.5
2017-Sep-25 01:00N 40°30' W 073°40'0 0.5
2017-Sep-25 00:13N 40°30' W 073°40'0 0.1
2017-Sep-24 23:58N 40°30' W 073°40'0 0.0
2017-Sep-24 23:25N 40°30' W 073°40'0 0.2
2017-Sep-24 22:52N 40°30' W 073°40'0 0.2
2017-Sep-24 22:28N 40°30' W 073°39'0 0.1
2017-Sep-24 21:13N 40°30' W 073°39'4 1.0
2017-Sep-24 17:30N 40°27' W 073°43'3111.2
2017-Sep-24 14:42N 40°08' W 073°11'1611.9
2017-Sep-24 13:24N 40°00' W 072°53'512.0
2017-Sep-24 12:58N 39°57' W 072°47'12 8.8
2017-Sep-24 11:32N 39°51' W 072°34'412.5
2017-Sep-24 11:12N 39°48' W 072°29'312.3
2017-Sep-24 10:58N 39°47' W 072°25'612.3
2017-Sep-24 10:28N 39°44' W 072°19'612.4
2017-Sep-24 09:59N 39°41' W 072°12'  
Track history (hours):
 
Tides and Currents Weather Stations Pressure Air Temp Water Temp Dewpoint Dewpoint Depression Visibility Wind Speed Wind Dir Waves Ship Positions

Seafriend

Last reported at 2017-Sep-29 03:36 UTC. Time now 2017-Oct-22 10:30 UTC.
Position N 31°59' W 074°17'.
Warning: this ship's position is 23 days out of date.

Length 183 m; draft 8 m.

Type: Tanker. MMSI: 229407000.

Date/timePositionNaut miles runAvg speedWind from/ knotsBaromVisibWave heightAir tempDewpointWater temp
2017-Sep-29 03:36N 31°59' W 074°17'112.5
2017-Sep-29 03:29N 32°00' W 074°17'50711.2
2017-Sep-27 06:08N 40°27' W 073°50'210.1
2017-Sep-27 05:58N 40°28' W 073°52'714.7
2017-Sep-27 05:30N 40°31' W 073°60'713.4
2017-Sep-27 05:01N 40°37' W 074°03'1 1.5
2017-Sep-27 04:28N 40°38' W 074°04'0 0.1
2017-Sep-27 03:58N 40°38' W 074°04'0 0.1
2017-Sep-27 03:28N 40°38' W 074°04'0 0.0
2017-Sep-27 02:58N 40°38' W 074°04'0 0.1
2017-Sep-27 02:28N 40°38' W 074°04'0 0.1
2017-Sep-27 01:58N 40°38' W 074°04'0 0.0
2017-Sep-27 01:28N 40°38' W 074°04'0 0.0
2017-Sep-27 00:58N 40°38' W 074°04'0 0.1
2017-Sep-27 00:28N 40°38' W 074°04'0 0.0
2017-Sep-26 23:58N 40°38' W 074°04'0 0.0
2017-Sep-26 23:28N 40°38' W 074°04'0 0.0
2017-Sep-26 22:58N 40°38' W 074°04'1 1.2
2017-Sep-26 22:30N 40°37' W 074°04'4 8.2
2017-Sep-26 22:00N 40°33' W 074°02'5 9.6
2017-Sep-26 21:30N 40°29' W 074°04'612.0
2017-Sep-26 20:59N 40°30' W 074°12'3 4.8
2017-Sep-26 20:21N 40°32' W 074°15'2 4.9
2017-Sep-26 20:00N 40°33' W 074°13'2 0.0
2017-Sep-25 05:48N 40°35' W 074°13'0 0.1
2017-Sep-25 05:29N 40°35' W 074°13'1 3.0
2017-Sep-25 05:00N 40°34' W 074°13'2 4.3
2017-Sep-25 04:30N 40°32' W 074°15'3 3.8
2017-Sep-25 03:47N 40°29' W 074°14'2 6.0
2017-Sep-25 03:30N 40°30' W 074°12'5 9.0
2017-Sep-25 03:00N 40°29' W 074°06'510.7
2017-Sep-25 02:30N 40°29' W 073°59'611.9
2017-Sep-25 02:00N 40°27' W 073°52'510.3
2017-Sep-25 01:30N 40°28' W 073°46'5 9.5
2017-Sep-25 01:00N 40°30' W 073°40'0 0.5
2017-Sep-25 00:13N 40°30' W 073°40'0 0.1
2017-Sep-24 23:58N 40°30' W 073°40'0 0.0
2017-Sep-24 23:25N 40°30' W 073°40'0 0.2
2017-Sep-24 22:52N 40°30' W 073°40'0 0.2
2017-Sep-24 22:28N 40°30' W 073°39'0 0.1
2017-Sep-24 21:13N 40°30' W 073°39'4 1.0
2017-Sep-24 17:30N 40°27' W 073°43'3111.2
2017-Sep-24 14:42N 40°08' W 073°11'1611.9
2017-Sep-24 13:24N 40°00' W 072°53'512.0
2017-Sep-24 12:58N 39°57' W 072°47'12 8.8
2017-Sep-24 11:32N 39°51' W 072°34'412.5
2017-Sep-24 11:12N 39°48' W 072°29'312.3
2017-Sep-24 10:58N 39°47' W 072°25'612.3
2017-Sep-24 10:28N 39°44' W 072°19'612.4
2017-Sep-24 09:59N 39°41' W 072°12'  

Dump ship's entire track history